Terminal Aerodrome Forecast
Issued by NWS

Home | Current Version | Previous Version | Graphics & Text | Print | Product List | Glossary On
Versions: 1 2 3 4 5 6 7 8 9 10 11 12
000
FTUS45 KGGW 211720
TAFGDV
TAF
KGDV 211720Z 2118/2218 30026G47KT P6SM BKN025 BKN035
     FM212200 29019G27KT P6SM FEW100
     FM220100 27010KT P6SM SKC
     FM221200 22008KT P6SM BKN090
     FM221500 23012KT P6SM OVC060 WS020/26040KT=

USA.gov is the U.S. government's official web portal to all federal, state and local government web resources and services.